DTTZ/TOE METAR and TAF weather

Enter ICAO airport designator
Station Type Date Time Source
DTTZ METAR 2018/10/22 17:00 UTC NOAA

DTTZ 221700Z 27008KT 9999 FEW033 27/13 Q1012 NOSIG


Station Type Date Time Source
DTTZ Decoded METAR 2018/10/22 17:00 UTC NOAA

Tozeur, Tunisia (DTTZ) 33-55N 008-06E 93M
Oct 22, 2018 - 01:00 PM EDT / 2018.10.22 1700 UTC
Wind: from the W (270 degrees) at 9 MPH (8 KT):0
Visibility: greater than 7 mile(s):0
Sky conditions: mostly clear
Temperature: 80 F (27 C)
Dew Point: 55 F (13 C)
Relative Humidity: 41%
Pressure (altimeter): 29.88 in. Hg (1012 hPa)
ob: DTTZ 221700Z 27008KT 9999 FEW033 27/13 Q1012 NOSIG
cycle: 17

Station Type Date Time Source
DTTZ TAF 2018/10/22 12:41 UTC NOAA

TAF DTTZ 221100Z 2212/2312 27010KT 9999 FEW020
BECMG 2218/2220 36012G22KT
TEMPO 2302/2306 34021G31K 4000 FEW015


Example: see airport list